Portada
METAR-TAF:

METAR-TAF

Aeroports :

Lanseria, Sud-àfrica

latitud: 25-56S, longitud: 027-56E, altitud: 1377 m

Observació

L'informe es va fer fa 57 minuts, a les 20:00 UTC
Vent 8 kt del Sud
Temperatura 17°C
Humitat 14%
Pressió 1022 hPa

METAR: FALA 282000Z AUTO 17008KT //// // ////// 17/M11 Q1022

Hora: 22:57 (20:57 UTC)

Pronòstic

L'informe es va fer fa 4 hores i 57 minuts, a les 16:00 UTC
Pronòstic vàlid del 28 a les 18 UTC al 29 a les 18 UTC
Vent 3 kt amb direcció variable
Visibilitat 10 km o més
sense núvols per sota de 1500 mi sense presència de cumulonimbus.
Probabilitat 30% :
Temporalment
l' 29 a les 03 UTC al 29 a les 06 UTC
Visibilitat: 5000 m
Cel ennuvolat a una alçada de 1000 ft
boirina
Evolucionant progressivament
l' 29 a les 08 UTC al 29 a les 10 UTC
Vent 10 kt del Nord-Oest

TAF: FALA 281600Z 2818/2918 VRB03KT CAVOK TX25/2913Z TN08/2904Z PROB30 TEMPO 2903/2906 5000 BR BKN010 BECMG 2908/2910 32010KT

Observacions i pronòstics meteorològics de més de 4000 aeroports (METAR i TAF).

Les estacions disponibles són els punts grocs i vermells al mapa.

Posi el ratolí al punt desitjat per veure el nom de l'estació.

Feu clic per veure les observacions i els pronòstics meteorològics.

Per canviar el mapa: feu clic els botons verds amb una creu de color negre per apropar; al botó verd amb un guió per allunyar la imatge; o en les fletxes verdes per a mapes adjacents.


METAR-TAF: